Accueil
METAR-TAF:

METAR-TAF

Aéroports :

Schwäbisch Hall, Allemagne

latitude: 49-07-06N, longitude: 9-47-02E, altitude: 398 m

Observation

Le bulletin a été fait il y a 37 minutes, à 19:50 UTC
Vent 3 kt de sud, variant entre sud/sud-est et sud-ouest
Température 4°C
Humidité 75%
Pression 998 hPa
Visibilité 10 km ou plus

METAR: EDTY 231950Z AUTO 19003KT 150V230 9999 // FEW075/// SCT220/// 04/M00 Q0998

Heure: 21:27 (20:27 UTC)

Prévision

Le bulletin a été fait il y a 3 heures et 27 minutes, à 17:00 UTC
Prévision valable du 23 à 18 UTC au 24 à 03 UTC
Vent 3 kt de direction variable
Visibilité 10 km ou plus
pas de nuages en-dessous de 1500 mètres et pas de cumulonimbus.

TAF: EDTY 231700Z 2318/2403 VRB03KT CAVOK

Observations et prévisions météorologiques de plus de 4000 aéroports (messages METAR et TAF).

Les stations disponibles sont représentées par des disques jaunes et rouges sur la carte.

Passer la souris dessus pour voir le nom de la station.

Cliquer dessus pour voir les observations et prévisions météorologiques.

Pour changer de carte: cliquez sur les boutons verts avec une croix noire pour zoomer, sur le bouton vert avec un tiret pour effectuer un zoom arrière, ou sur les flèches vertes pour les cartes adjacentes.


METAR-TAF: